LGH weather

Leigh Creek Airport
South Australia, Australia

Public forecast

Using degrees Celsius for public forecast. Weather courtesy of forecast.io.

METAR (pilot weather report)

Retrieved 2019/03/24 15:00 UTC (36 minutes ago):

YLEC 241500Z AUTO 22011KT //// // ////// 21/19 Q1011

TAF (pilot weather forecast)

Closest forecast is Woomera Airfield, 89.2 nm (165.1 km) WSW. Retrieved 2019/03/24 12:00 UTC (4 hours ago):

TAF YPWR 241039Z 2412/2506 22012KT 9999 SCT025 FM242300 20018KT 9999 SCT040